sensor_id;sensor_type;location;lat;lon;timestamp;P1;durP1;ratioP1;P2;durP2;ratioP2
70247;SDS011;57641;51.416;5.506;2023-01-16T00:01:28;1.98;;;0.90;;
70247;SDS011;57641;51.416;5.506;2023-01-16T00:03:54;2.75;;;0.95;;
70247;SDS011;57641;51.416;5.506;2023-01-16T00:06:19;4.05;;;1.17;;
70247;SDS011;57641;51.416;5.506;2023-01-16T00:08:45;5.70;;;1.08;;
70247;SDS011;57641;51.416;5.506;2023-01-16T00:11:12;6.72;;;1.38;;
70247;SDS011;57641;51.416;5.506;2023-01-16T00:13:38;3.78;;;0.75;;
70247;SDS011;57641;51.416;5.506;2023-01-16T00:16:05;4.43;;;1.30;;
70247;SDS011;57641;51.416;5.506;2023-01-16T00:18:31;1.90;;;1.00;;
70247;SDS011;57641;51.416;5.506;2023-01-16T00:20:57;5.18;;;1.30;;
70247;SDS011;57641;51.416;5.506;2023-01-16T00:23:23;2.67;;;1.13;;
70247;SDS011;57641;51.416;5.506;2023-01-16T00:25:48;9.00;;;1.27;;
70247;SDS011;57641;51.416;5.506;2023-01-16T00:28:14;4.05;;;1.17;;
70247;SDS011;57641;51.416;5.506;2023-01-16T00:30:40;1.52;;;0.80;;
70247;SDS011;57641;51.416;5.506;2023-01-16T00:33:07;3.97;;;1.20;;
70247;SDS011;57641;51.416;5.506;2023-01-16T00:35:34;4.82;;;1.55;;
70247;SDS011;57641;51.416;5.506;2023-01-16T00:38:00;3.40;;;1.38;;
70247;SDS011;57641;51.416;5.506;2023-01-16T00:40:26;3.35;;;0.80;;
70247;SDS011;57641;51.416;5.506;2023-01-16T00:42:52;4.20;;;1.02;;
70247;SDS011;57641;51.416;5.506;2023-01-16T00:45:18;5.63;;;1.40;;
70247;SDS011;57641;51.416;5.506;2023-01-16T00:47:44;6.18;;;1.30;;
70247;SDS011;57641;51.416;5.506;2023-01-16T00:50:10;2.63;;;1.20;;
70247;SDS011;57641;51.416;5.506;2023-01-16T00:52:36;4.15;;;0.70;;
70247;SDS011;57641;51.416;5.506;2023-01-16T00:55:01;4.53;;;1.77;;
70247;SDS011;57641;51.416;5.506;2023-01-16T00:57:27;4.68;;;1.00;;
70247;SDS011;57641;51.416;5.506;2023-01-16T00:59:53;3.97;;;0.93;;
70247;SDS011;57641;51.416;5.506;2023-01-16T01:02:19;3.60;;;0.93;;
70247;SDS011;57641;51.416;5.506;2023-01-16T01:04:45;3.80;;;1.08;;
70247;SDS011;57641;51.416;5.506;2023-01-16T01:07:11;5.97;;;1.20;;
70247;SDS011;57641;51.416;5.506;2023-01-16T01:09:36;4.63;;;1.10;;
70247;SDS011;57641;51.416;5.506;2023-01-16T01:12:02;3.75;;;1.10;;
70247;SDS011;57641;51.416;5.506;2023-01-16T01:14:28;4.15;;;1.10;;
70247;SDS011;57641;51.416;5.506;2023-01-16T01:16:56;4.78;;;1.15;;
70247;SDS011;57641;51.416;5.506;2023-01-16T01:19:22;3.40;;;1.10;;
70247;SDS011;57641;51.416;5.506;2023-01-16T01:21:48;2.88;;;1.17;;
70247;SDS011;57641;51.416;5.506;2023-01-16T01:24:13;2.15;;;0.85;;
70247;SDS011;57641;51.416;5.506;2023-01-16T01:26:42;4.10;;;1.00;;
70247;SDS011;57641;51.416;5.506;2023-01-16T01:29:08;6.50;;;1.30;;
70247;SDS011;57641;51.416;5.506;2023-01-16T01:31:34;2.40;;;0.98;;
70247;SDS011;57641;51.416;5.506;2023-01-16T01:33:59;3.83;;;1.20;;
70247;SDS011;57641;51.416;5.506;2023-01-16T01:36:24;4.80;;;1.38;;
70247;SDS011;57641;51.416;5.506;2023-01-16T01:38:50;5.03;;;1.40;;
70247;SDS011;57641;51.416;5.506;2023-01-16T01:41:16;5.97;;;1.10;;
70247;SDS011;57641;51.416;5.506;2023-01-16T01:46:09;6.22;;;1.00;;
70247;SDS011;57641;51.416;5.506;2023-01-16T01:48:45;5.38;;;1.10;;
70247;SDS011;57641;51.416;5.506;2023-01-16T01:51:17;3.85;;;1.33;;
70247;SDS011;57641;51.416;5.506;2023-01-16T01:53:55;7.60;;;1.00;;
70247;SDS011;57641;51.416;5.506;2023-01-16T01:56:51;3.53;;;1.10;;
70247;SDS011;57641;51.416;5.506;2023-01-16T01:59:26;5.95;;;1.10;;
70247;SDS011;57641;51.416;5.506;2023-01-16T02:01:54;4.60;;;0.85;;
70247;SDS011;57641;51.416;5.506;2023-01-16T02:04:25;1.92;;;0.88;;
70247;SDS011;57641;51.416;5.506;2023-01-16T02:06:57;3.72;;;0.98;;
70247;SDS011;57641;51.416;5.506;2023-01-16T02:09:28;2.05;;;0.70;;
70247;SDS011;57641;51.416;5.506;2023-01-16T02:14:21;6.50;;;1.08;;
70247;SDS011;57641;51.416;5.506;2023-01-16T02:16:51;3.45;;;0.68;;
70247;SDS011;57641;51.416;5.506;2023-01-16T02:22:45;3.17;;;0.70;;
70247;SDS011;57641;51.416;5.506;2023-01-16T02:33:32;1.83;;;1.08;;
70247;SDS011;57641;51.416;5.506;2023-01-16T02:36:03;3.75;;;1.00;;
70247;SDS011;57641;51.416;5.506;2023-01-16T02:41:26;3.00;;;0.60;;
70247;SDS011;57641;51.416;5.506;2023-01-16T02:49:52;2.67;;;0.70;;
70247;SDS011;57641;51.416;5.506;2023-01-16T02:58:33;3.58;;;0.60;;
70247;SDS011;57641;51.416;5.506;2023-01-16T03:01:04;2.90;;;0.80;;
70247;SDS011;57641;51.416;5.506;2023-01-16T03:08:42;3.75;;;0.77;;
70247;SDS011;57641;51.416;5.506;2023-01-16T03:11:25;3.05;;;0.82;;
70247;SDS011;57641;51.416;5.506;2023-01-16T03:14:28;4.37;;;1.03;;
70247;SDS011;57641;51.416;5.506;2023-01-16T03:17:17;4.78;;;0.95;;
70247;SDS011;57641;51.416;5.506;2023-01-16T03:20:00;4.60;;;0.80;;
70247;SDS011;57641;51.416;5.506;2023-01-16T03:31:25;2.00;;;0.70;;
70247;SDS011;57641;51.416;5.506;2023-01-16T03:37:05;2.83;;;0.90;;
70247;SDS011;57641;51.416;5.506;2023-01-16T03:39:42;5.68;;;0.95;;
70247;SDS011;57641;51.416;5.506;2023-01-16T03:42:17;2.80;;;0.73;;
70247;SDS011;57641;51.416;5.506;2023-01-16T03:44:55;5.40;;;1.08;;
70247;SDS011;57641;51.416;5.506;2023-01-16T03:47:29;4.45;;;0.82;;
70247;SDS011;57641;51.416;5.506;2023-01-16T03:50:02;5.15;;;0.80;;
70247;SDS011;57641;51.416;5.506;2023-01-16T03:52:40;4.95;;;1.20;;
70247;SDS011;57641;51.416;5.506;2023-01-16T03:55:15;2.25;;;1.20;;
70247;SDS011;57641;51.416;5.506;2023-01-16T03:57:48;3.95;;;1.30;;
70247;SDS011;57641;51.416;5.506;2023-01-16T04:00:19;2.42;;;1.20;;
70247;SDS011;57641;51.416;5.506;2023-01-16T04:02:57;2.85;;;1.10;;
70247;SDS011;57641;51.416;5.506;2023-01-16T04:05:31;4.45;;;1.00;;
70247;SDS011;57641;51.416;5.506;2023-01-16T04:08:16;3.88;;;1.17;;
70247;SDS011;57641;51.416;5.506;2023-01-16T04:10:46;4.63;;;1.20;;
70247;SDS011;57641;51.416;5.506;2023-01-16T04:13:16;4.40;;;1.20;;
70247;SDS011;57641;51.416;5.506;2023-01-16T04:15:50;6.15;;;1.38;;
70247;SDS011;57641;51.416;5.506;2023-01-16T04:20:50;6.45;;;1.27;;
70247;SDS011;57641;51.416;5.506;2023-01-16T04:23:16;7.13;;;1.30;;
70247;SDS011;57641;51.416;5.506;2023-01-16T04:25:42;6.60;;;1.20;;
70247;SDS011;57641;51.416;5.506;2023-01-16T04:28:10;3.28;;;1.02;;
70247;SDS011;57641;51.416;5.506;2023-01-16T04:30:36;2.50;;;0.90;;
70247;SDS011;57641;51.416;5.506;2023-01-16T04:33:02;3.63;;;0.98;;
70247;SDS011;57641;51.416;5.506;2023-01-16T04:35:34;6.45;;;1.58;;
70247;SDS011;57641;51.416;5.506;2023-01-16T04:38:00;3.92;;;1.10;;
70247;SDS011;57641;51.416;5.506;2023-01-16T04:40:26;2.13;;;1.00;;
70247;SDS011;57641;51.416;5.506;2023-01-16T04:42:51;2.67;;;1.10;;
70247;SDS011;57641;51.416;5.506;2023-01-16T04:45:20;2.88;;;0.90;;
70247;SDS011;57641;51.416;5.506;2023-01-16T04:47:47;4.25;;;1.58;;
70247;SDS011;57641;51.416;5.506;2023-01-16T04:50:14;6.63;;;1.50;;
70247;SDS011;57641;51.416;5.506;2023-01-16T04:52:41;4.30;;;1.10;;
70247;SDS011;57641;51.416;5.506;2023-01-16T04:55:08;6.65;;;1.55;;
70247;SDS011;57641;51.416;5.506;2023-01-16T04:57:41;1.90;;;0.90;;
70247;SDS011;57641;51.416;5.506;2023-01-16T05:00:08;4.30;;;1.02;;
70247;SDS011;57641;51.416;5.506;2023-01-16T05:02:36;5.97;;;1.00;;
70247;SDS011;57641;51.416;5.506;2023-01-16T05:05:01;5.50;;;1.00;;
70247;SDS011;57641;51.416;5.506;2023-01-16T05:07:27;4.35;;;0.90;;
70247;SDS011;57641;51.416;5.506;2023-01-16T05:09:53;2.65;;;1.00;;
70247;SDS011;57641;51.416;5.506;2023-01-16T05:12:20;3.53;;;0.90;;
70247;SDS011;57641;51.416;5.506;2023-01-16T05:14:46;4.40;;;0.85;;
70247;SDS011;57641;51.416;5.506;2023-01-16T05:17:12;3.65;;;0.77;;
70247;SDS011;57641;51.416;5.506;2023-01-16T05:19:38;3.53;;;1.30;;
70247;SDS011;57641;51.416;5.506;2023-01-16T05:22:03;2.33;;;0.73;;
70247;SDS011;57641;51.416;5.506;2023-01-16T05:24:30;5.70;;;0.98;;
70247;SDS011;57641;51.416;5.506;2023-01-16T05:26:56;3.28;;;1.08;;
70247;SDS011;57641;51.416;5.506;2023-01-16T05:29:22;2.38;;;0.82;;
70247;SDS011;57641;51.416;5.506;2023-01-16T05:31:47;2.30;;;1.00;;
70247;SDS011;57641;51.416;5.506;2023-01-16T05:34:13;3.78;;;0.77;;
70247;SDS011;57641;51.416;5.506;2023-01-16T05:36:38;4.82;;;0.82;;
70247;SDS011;57641;51.416;5.506;2023-01-16T05:39:04;2.58;;;0.80;;
70247;SDS011;57641;51.416;5.506;2023-01-16T05:41:30;3.97;;;0.70;;
70247;SDS011;57641;51.416;5.506;2023-01-16T05:43:55;2.00;;;0.60;;
70247;SDS011;57641;51.416;5.506;2023-01-16T05:46:20;2.58;;;0.77;;
70247;SDS011;57641;51.416;5.506;2023-01-16T05:48:46;2.88;;;0.70;;
70247;SDS011;57641;51.416;5.506;2023-01-16T05:51:12;3.55;;;1.08;;
70247;SDS011;57641;51.416;5.506;2023-01-16T05:53:38;3.97;;;0.90;;
70247;SDS011;57641;51.416;5.506;2023-01-16T05:56:10;2.22;;;0.95;;
70247;SDS011;57641;51.416;5.506;2023-01-16T05:58:38;2.40;;;0.90;;
70247;SDS011;57641;51.416;5.506;2023-01-16T06:01:03;4.40;;;0.80;;
70247;SDS011;57641;51.416;5.506;2023-01-16T06:03:30;5.70;;;0.88;;
70247;SDS011;57641;51.416;5.506;2023-01-16T06:05:56;3.13;;;1.00;;
70247;SDS011;57641;51.416;5.506;2023-01-16T06:08:24;2.25;;;0.60;;
70247;SDS011;57641;51.416;5.506;2023-01-16T06:10:50;1.90;;;0.85;;
70247;SDS011;57641;51.416;5.506;2023-01-16T06:13:15;4.18;;;0.85;;
70247;SDS011;57641;51.416;5.506;2023-01-16T06:15:41;4.53;;;0.90;;
70247;SDS011;57641;51.416;5.506;2023-01-16T06:18:07;2.05;;;0.95;;
70247;SDS011;57641;51.416;5.506;2023-01-16T06:20:33;2.47;;;0.80;;
70247;SDS011;57641;51.416;5.506;2023-01-16T06:22:58;3.65;;;0.75;;
70247;SDS011;57641;51.416;5.506;2023-01-16T06:25:24;4.32;;;0.80;;
70247;SDS011;57641;51.416;5.506;2023-01-16T06:27:55;1.73;;;0.60;;
70247;SDS011;57641;51.416;5.506;2023-01-16T06:30:21;5.53;;;1.05;;
70247;SDS011;57641;51.416;5.506;2023-01-16T06:32:47;5.25;;;0.77;;
70247;SDS011;57641;51.416;5.506;2023-01-16T06:35:14;3.03;;;0.90;;
70247;SDS011;57641;51.416;5.506;2023-01-16T06:37:40;3.35;;;0.88;;
70247;SDS011;57641;51.416;5.506;2023-01-16T06:40:06;3.83;;;1.00;;
70247;SDS011;57641;51.416;5.506;2023-01-16T06:42:32;2.88;;;1.20;;
70247;SDS011;57641;51.416;5.506;2023-01-16T06:44:58;3.97;;;0.90;;
70247;SDS011;57641;51.416;5.506;2023-01-16T06:47:23;4.18;;;0.95;;
70247;SDS011;57641;51.416;5.506;2023-01-16T06:49:48;2.55;;;0.88;;
70247;SDS011;57641;51.416;5.506;2023-01-16T06:52:14;4.90;;;0.93;;
70247;SDS011;57641;51.416;5.506;2023-01-16T06:54:52;5.93;;;1.33;;
70247;SDS011;57641;51.416;5.506;2023-01-16T06:57:21;2.20;;;0.65;;
70247;SDS011;57641;51.416;5.506;2023-01-16T06:59:47;3.30;;;0.70;;
70247;SDS011;57641;51.416;5.506;2023-01-16T07:02:15;2.22;;;0.57;;
70247;SDS011;57641;51.416;5.506;2023-01-16T07:04:43;6.18;;;1.10;;
70247;SDS011;57641;51.416;5.506;2023-01-16T07:07:09;3.13;;;0.70;;
70247;SDS011;57641;51.416;5.506;2023-01-16T07:09:35;1.75;;;0.70;;
70247;SDS011;57641;51.416;5.506;2023-01-16T07:12:00;1.38;;;0.60;;
70247;SDS011;57641;51.416;5.506;2023-01-16T07:14:26;4.43;;;0.77;;
70247;SDS011;57641;51.416;5.506;2023-01-16T07:17:15;1.33;;;0.68;;
70247;SDS011;57641;51.416;5.506;2023-01-16T07:20:00;2.15;;;0.60;;
70247;SDS011;57641;51.416;5.506;2023-01-16T07:22:45;3.10;;;0.63;;
70247;SDS011;57641;51.416;5.506;2023-01-16T07:25:12;2.58;;;0.70;;
70247;SDS011;57641;51.416;5.506;2023-01-16T07:28:00;4.68;;;0.85;;
70247;SDS011;57641;51.416;5.506;2023-01-16T07:30:26;1.98;;;0.65;;
70247;SDS011;57641;51.416;5.506;2023-01-16T07:32:52;2.42;;;0.70;;
70247;SDS011;57641;51.416;5.506;2023-01-16T07:35:18;2.10;;;0.45;;
70247;SDS011;57641;51.416;5.506;2023-01-16T07:37:44;3.10;;;1.02;;
70247;SDS011;57641;51.416;5.506;2023-01-16T07:40:11;1.48;;;0.70;;
70247;SDS011;57641;51.416;5.506;2023-01-16T07:42:37;0.90;;;0.70;;
70247;SDS011;57641;51.416;5.506;2023-01-16T07:45:04;3.70;;;0.85;;
70247;SDS011;57641;51.416;5.506;2023-01-16T07:47:33;2.95;;;0.73;;
70247;SDS011;57641;51.416;5.506;2023-01-16T07:49:59;2.05;;;0.63;;
70247;SDS011;57641;51.416;5.506;2023-01-16T07:52:26;1.52;;;0.90;;
70247;SDS011;57641;51.416;5.506;2023-01-16T07:54:51;6.18;;;0.80;;
70247;SDS011;57641;51.416;5.506;2023-01-16T07:57:17;1.13;;;0.60;;
70247;SDS011;57641;51.416;5.506;2023-01-16T07:59:42;4.07;;;1.13;;
70247;SDS011;57641;51.416;5.506;2023-01-16T08:02:08;0.98;;;0.60;;
70247;SDS011;57641;51.416;5.506;2023-01-16T08:04:35;3.03;;;0.52;;
70247;SDS011;57641;51.416;5.506;2023-01-16T08:07:00;1.20;;;0.63;;
70247;SDS011;57641;51.416;5.506;2023-01-16T08:09:26;3.03;;;0.73;;
70247;SDS011;57641;51.416;5.506;2023-01-16T08:11:51;1.42;;;0.60;;
70247;SDS011;57641;51.416;5.506;2023-01-16T08:14:17;1.25;;;0.60;;
70247;SDS011;57641;51.416;5.506;2023-01-16T08:16:42;1.58;;;0.60;;
70247;SDS011;57641;51.416;5.506;2023-01-16T08:19:08;1.73;;;0.80;;
70247;SDS011;57641;51.416;5.506;2023-01-16T08:21:34;2.47;;;0.70;;
70247;SDS011;57641;51.416;5.506;2023-01-16T08:24:06;2.53;;;0.77;;
70247;SDS011;57641;51.416;5.506;2023-01-16T08:26:36;4.22;;;0.73;;
70247;SDS011;57641;51.416;5.506;2023-01-16T08:29:01;1.05;;;0.63;;
70247;SDS011;57641;51.416;5.506;2023-01-16T08:31:27;3.28;;;0.70;;
70247;SDS011;57641;51.416;5.506;2023-01-16T08:33:53;6.70;;;0.90;;
70247;SDS011;57641;51.416;5.506;2023-01-16T08:36:22;1.58;;;0.75;;
70247;SDS011;57641;51.416;5.506;2023-01-16T08:38:48;1.20;;;0.60;;
70247;SDS011;57641;51.416;5.506;2023-01-16T08:41:14;2.10;;;1.02;;
70247;SDS011;57641;51.416;5.506;2023-01-16T08:43:59;2.10;;;0.82;;
70247;SDS011;57641;51.416;5.506;2023-01-16T08:46:44;1.40;;;0.60;;
70247;SDS011;57641;51.416;5.506;2023-01-16T08:49:37;1.92;;;0.70;;
70247;SDS011;57641;51.416;5.506;2023-01-16T08:52:21;1.70;;;0.60;;
70247;SDS011;57641;51.416;5.506;2023-01-16T08:54:47;2.10;;;0.55;;
70247;SDS011;57641;51.416;5.506;2023-01-16T08:57:12;2.58;;;0.73;;
70247;SDS011;57641;51.416;5.506;2023-01-16T08:59:37;2.78;;;1.00;;
70247;SDS011;57641;51.416;5.506;2023-01-16T09:02:04;2.15;;;0.50;;
70247;SDS011;57641;51.416;5.506;2023-01-16T09:04:33;1.05;;;0.50;;
70247;SDS011;57641;51.416;5.506;2023-01-16T09:07:00;0.68;;;0.45;;
70247;SDS011;57641;51.416;5.506;2023-01-16T09:09:26;0.60;;;0.40;;
70247;SDS011;57641;51.416;5.506;2023-01-16T09:11:55;1.77;;;0.43;;
70247;SDS011;57641;51.416;5.506;2023-01-16T09:14:41;1.83;;;0.50;;
70247;SDS011;57641;51.416;5.506;2023-01-16T09:17:07;0.68;;;0.38;;
70247;SDS011;57641;51.416;5.506;2023-01-16T09:19:34;0.47;;;0.38;;
70247;SDS011;57641;51.416;5.506;2023-01-16T09:22:01;0.75;;;0.50;;
70247;SDS011;57641;51.416;5.506;2023-01-16T09:24:31;0.88;;;0.30;;
70247;SDS011;57641;51.416;5.506;2023-01-16T09:26:58;0.82;;;0.40;;
70247;SDS011;57641;51.416;5.506;2023-01-16T09:29:25;0.20;;;0.20;;
70247;SDS011;57641;51.416;5.506;2023-01-16T09:31:55;0.52;;;0.30;;
70247;SDS011;57641;51.416;5.506;2023-01-16T09:34:21;0.77;;;0.25;;
70247;SDS011;57641;51.416;5.506;2023-01-16T09:36:47;0.60;;;0.30;;
70247;SDS011;57641;51.416;5.506;2023-01-16T09:39:13;1.67;;;0.30;;
70247;SDS011;57641;51.416;5.506;2023-01-16T09:41:47;0.40;;;0.40;;
70247;SDS011;57641;51.416;5.506;2023-01-16T09:44:53;0.93;;;0.38;;
70247;SDS011;57641;51.416;5.506;2023-01-16T09:47:22;0.10;;;0.10;;
70247;SDS011;57641;51.416;5.506;2023-01-16T09:49:52;0.50;;;0.30;;
70247;SDS011;57641;51.416;5.506;2023-01-16T09:52:32;0.60;;;0.30;;
70247;SDS011;57641;51.416;5.506;2023-01-16T09:55:27;1.20;;;0.38;;
70247;SDS011;57641;51.416;5.506;2023-01-16T09:58:20;0.20;;;0.20;;
70247;SDS011;57641;51.416;5.506;2023-01-16T10:01:25;0.63;;;0.30;;
70247;SDS011;57641;51.416;5.506;2023-01-16T10:04:21;1.02;;;0.20;;
70247;SDS011;57641;51.416;5.506;2023-01-16T10:12:30;0.88;;;0.30;;
70247;SDS011;57641;51.416;5.506;2023-01-16T10:15:43;0.77;;;0.30;;
70247;SDS011;57641;51.416;5.506;2023-01-16T10:25:50;0.70;;;0.32;;
70247;SDS011;57641;51.416;5.506;2023-01-16T10:31:05;1.42;;;0.50;;
70247;SDS011;57641;51.416;5.506;2023-01-16T10:36:13;0.40;;;0.30;;
70247;SDS011;57641;51.416;5.506;2023-01-16T10:38:45;0.85;;;0.32;;
70247;SDS011;57641;51.416;5.506;2023-01-16T10:41:30;1.75;;;0.30;;
70247;SDS011;57641;51.416;5.506;2023-01-16T10:44:33;1.05;;;0.30;;
70247;SDS011;57641;51.416;5.506;2023-01-16T10:47:34;0.68;;;0.20;;
70247;SDS011;57641;51.416;5.506;2023-01-16T10:50:21;0.40;;;0.30;;
70247;SDS011;57641;51.416;5.506;2023-01-16T10:52:50;0.80;;;0.30;;
70247;SDS011;57641;51.416;5.506;2023-01-16T10:55:16;0.38;;;0.20;;
70247;SDS011;57641;51.416;5.506;2023-01-16T10:57:47;0.30;;;0.20;;
70247;SDS011;57641;51.416;5.506;2023-01-16T11:03:08;1.08;;;0.20;;
70247;SDS011;57641;51.416;5.506;2023-01-16T11:05:40;0.35;;;0.20;;
70247;SDS011;57641;51.416;5.506;2023-01-16T11:08:06;0.20;;;0.20;;
70247;SDS011;57641;51.416;5.506;2023-01-16T11:10:45;0.22;;;0.20;;
70247;SDS011;57641;51.416;5.506;2023-01-16T11:18:50;0.63;;;0.20;;
70247;SDS011;57641;51.416;5.506;2023-01-16T11:21:22;0.50;;;0.40;;
70247;SDS011;57641;51.416;5.506;2023-01-16T11:23:56;0.82;;;0.40;;
70247;SDS011;57641;51.416;5.506;2023-01-16T11:26:29;0.30;;;0.30;;
70247;SDS011;57641;51.416;5.506;2023-01-16T11:28:56;0.80;;;0.30;;
70247;SDS011;57641;51.416;5.506;2023-01-16T11:31:27;0.30;;;0.20;;
70247;SDS011;57641;51.416;5.506;2023-01-16T11:33:58;0.95;;;0.25;;
70247;SDS011;57641;51.416;5.506;2023-01-16T11:36:31;0.30;;;0.30;;
70247;SDS011;57641;51.416;5.506;2023-01-16T11:39:02;0.35;;;0.20;;
70247;SDS011;57641;51.416;5.506;2023-01-16T11:41:33;0.65;;;0.35;;
70247;SDS011;57641;51.416;5.506;2023-01-16T11:44:21;0.50;;;0.40;;
70247;SDS011;57641;51.416;5.506;2023-01-16T11:47:16;0.57;;;0.52;;
70247;SDS011;57641;51.416;5.506;2023-01-16T11:49:53;0.30;;;0.30;;
70247;SDS011;57641;51.416;5.506;2023-01-16T11:52:20;0.57;;;0.30;;
70247;SDS011;57641;51.416;5.506;2023-01-16T11:55:03;1.50;;;0.30;;
70247;SDS011;57641;51.416;5.506;2023-01-16T12:03:01;3.83;;;0.50;;
70247;SDS011;57641;51.416;5.506;2023-01-16T12:14:10;0.20;;;0.20;;
70247;SDS011;57641;51.416;5.506;2023-01-16T12:31:09;0.30;;;0.13;;
70247;SDS011;57641;51.416;5.506;2023-01-16T12:34:17;0.20;;;0.20;;
70247;SDS011;57641;51.416;5.506;2023-01-16T12:59:14;0.38;;;0.38;;
70247;SDS011;57641;51.416;5.506;2023-01-16T13:01:45;0.70;;;0.20;;
70247;SDS011;57641;51.416;5.506;2023-01-16T13:06:56;0.38;;;0.20;;
70247;SDS011;57641;51.416;5.506;2023-01-16T13:09:39;0.20;;;0.20;;
70247;SDS011;57641;51.416;5.506;2023-01-16T13:12:40;0.32;;;0.30;;
70247;SDS011;57641;51.416;5.506;2023-01-16T13:15:28;1.00;;;0.20;;
70247;SDS011;57641;51.416;5.506;2023-01-16T13:17:58;0.80;;;0.20;;
70247;SDS011;57641;51.416;5.506;2023-01-16T13:20:29;0.38;;;0.20;;
70247;SDS011;57641;51.416;5.506;2023-01-16T13:23:11;0.15;;;0.10;;
70247;SDS011;57641;51.416;5.506;2023-01-16T13:25:44;0.20;;;0.10;;
70247;SDS011;57641;51.416;5.506;2023-01-16T13:28:29;0.45;;;0.10;;
70247;SDS011;57641;51.416;5.506;2023-01-16T13:31:34;0.70;;;0.10;;
70247;SDS011;57641;51.416;5.506;2023-01-16T13:34:21;0.40;;;0.40;;
70247;SDS011;57641;51.416;5.506;2023-01-16T13:42:22;0.20;;;0.20;;
70247;SDS011;57641;51.416;5.506;2023-01-16T13:44:52;0.20;;;0.10;;
70247;SDS011;57641;51.416;5.506;2023-01-16T13:47:41;0.43;;;0.17;;
70247;SDS011;57641;51.416;5.506;2023-01-16T13:52:46;0.15;;;0.05;;
70247;SDS011;57641;51.416;5.506;2023-01-16T13:55:26;0.10;;;0.10;;
70247;SDS011;57641;51.416;5.506;2023-01-16T13:57:55;0.10;;;0.05;;
70247;SDS011;57641;51.416;5.506;2023-01-16T14:00:23;0.20;;;0.20;;
70247;SDS011;57641;51.416;5.506;2023-01-16T14:03:14;1.05;;;0.13;;
70247;SDS011;57641;51.416;5.506;2023-01-16T14:05:50;0.20;;;0.20;;
70247;SDS011;57641;51.416;5.506;2023-01-16T14:14:46;0.10;;;0.10;;
70247;SDS011;57641;51.416;5.506;2023-01-16T14:23:20;0.20;;;0.10;;
70247;SDS011;57641;51.416;5.506;2023-01-16T14:26:06;0.45;;;0.22;;
70247;SDS011;57641;51.416;5.506;2023-01-16T14:28:33;0.35;;;0.20;;
70247;SDS011;57641;51.416;5.506;2023-01-16T14:31:02;0.20;;;0.20;;
70247;SDS011;57641;51.416;5.506;2023-01-16T14:33:29;0.10;;;0.10;;
70247;SDS011;57641;51.416;5.506;2023-01-16T14:35:55;0.22;;;0.22;;
70247;SDS011;57641;51.416;5.506;2023-01-16T14:38:28;0.40;;;0.25;;
70247;SDS011;57641;51.416;5.506;2023-01-16T14:40:59;0.40;;;0.40;;
70247;SDS011;57641;51.416;5.506;2023-01-16T14:47:08;0.30;;;0.30;;
70247;SDS011;57641;51.416;5.506;2023-01-16T14:55:24;0.50;;;0.20;;
70247;SDS011;57641;51.416;5.506;2023-01-16T14:57:51;0.22;;;0.15;;
70247;SDS011;57641;51.416;5.506;2023-01-16T15:00:20;0.45;;;0.20;;
70247;SDS011;57641;51.416;5.506;2023-01-16T15:03:07;0.22;;;0.22;;
70247;SDS011;57641;51.416;5.506;2023-01-16T15:06:10;0.52;;;0.30;;
70247;SDS011;57641;51.416;5.506;2023-01-16T15:08:30;0.57;;;0.40;;
70247;SDS011;57641;51.416;5.506;2023-01-16T15:11:01;1.05;;;0.28;;
70247;SDS011;57641;51.416;5.506;2023-01-16T15:14:05;0.38;;;0.38;;
70247;SDS011;57641;51.416;5.506;2023-01-16T15:19:54;1.45;;;0.40;;
70247;SDS011;57641;51.416;5.506;2023-01-16T15:22:57;0.30;;;0.30;;
70247;SDS011;57641;51.416;5.506;2023-01-16T15:31:06;0.43;;;0.43;;
70247;SDS011;57641;51.416;5.506;2023-01-16T15:33:40;1.02;;;0.50;;
70247;SDS011;57641;51.416;5.506;2023-01-16T15:36:17;0.63;;;0.50;;
70247;SDS011;57641;51.416;5.506;2023-01-16T15:39:20;0.65;;;0.40;;
70247;SDS011;57641;51.416;5.506;2023-01-16T15:42:07;0.73;;;0.45;;
70247;SDS011;57641;51.416;5.506;2023-01-16T15:44:59;0.75;;;0.60;;
70247;SDS011;57641;51.416;5.506;2023-01-16T15:53:37;0.65;;;0.50;;
70247;SDS011;57641;51.416;5.506;2023-01-16T15:56:07;1.10;;;0.63;;
70247;SDS011;57641;51.416;5.506;2023-01-16T15:58:45;0.88;;;0.70;;
70247;SDS011;57641;51.416;5.506;2023-01-16T16:01:13;2.17;;;0.90;;
70247;SDS011;57641;51.416;5.506;2023-01-16T16:03:46;1.33;;;0.77;;
70247;SDS011;57641;51.416;5.506;2023-01-16T16:06:17;0.95;;;0.70;;
70247;SDS011;57641;51.416;5.506;2023-01-16T16:08:48;0.95;;;0.70;;
70247;SDS011;57641;51.416;5.506;2023-01-16T16:11:26;1.25;;;0.70;;
70247;SDS011;57641;51.416;5.506;2023-01-16T16:14:15;0.73;;;0.60;;
70247;SDS011;57641;51.416;5.506;2023-01-16T16:20:26;2.17;;;0.93;;
70247;SDS011;57641;51.416;5.506;2023-01-16T16:23:35;1.20;;;0.85;;
70247;SDS011;57641;51.416;5.506;2023-01-16T16:25:50;0.88;;;0.77;;
70247;SDS011;57641;51.416;5.506;2023-01-16T16:28:24;1.08;;;1.00;;
70247;SDS011;57641;51.416;5.506;2023-01-16T16:31:14;1.00;;;0.90;;
70247;SDS011;57641;51.416;5.506;2023-01-16T16:33:40;1.30;;;0.80;;
70247;SDS011;57641;51.416;5.506;2023-01-16T16:36:13;0.93;;;0.80;;
70247;SDS011;57641;51.416;5.506;2023-01-16T16:38:41;2.95;;;1.48;;
70247;SDS011;57641;51.416;5.506;2023-01-16T16:43:44;1.02;;;0.90;;
70247;SDS011;57641;51.416;5.506;2023-01-16T16:46:35;0.95;;;0.80;;
70247;SDS011;57641;51.416;5.506;2023-01-16T16:51:35;1.00;;;0.90;;
70247;SDS011;57641;51.416;5.506;2023-01-16T16:54:34;3.25;;;1.08;;
70247;SDS011;57641;51.416;5.506;2023-01-16T16:56:54;1.38;;;0.80;;
70247;SDS011;57641;51.416;5.506;2023-01-16T16:59:24;0.68;;;0.68;;
70247;SDS011;57641;51.416;5.506;2023-01-16T17:01:54;0.95;;;0.90;;
70247;SDS011;57641;51.416;5.506;2023-01-16T17:04:28;1.50;;;1.10;;
70247;SDS011;57641;51.416;5.506;2023-01-16T17:06:55;0.98;;;0.93;;
70247;SDS011;57641;51.416;5.506;2023-01-16T17:09:24;1.15;;;1.00;;
70247;SDS011;57641;51.416;5.506;2023-01-16T17:11:57;3.97;;;1.48;;
70247;SDS011;57641;51.416;5.506;2023-01-16T17:14:37;1.85;;;1.13;;
70247;SDS011;57641;51.416;5.506;2023-01-16T17:17:04;2.03;;;1.30;;
70247;SDS011;57641;51.416;5.506;2023-01-16T17:19:31;3.05;;;2.08;;
70247;SDS011;57641;51.416;5.506;2023-01-16T17:21:59;4.63;;;3.05;;
70247;SDS011;57641;51.416;5.506;2023-01-16T17:24:25;2.15;;;1.50;;
70247;SDS011;57641;51.416;5.506;2023-01-16T17:26:53;2.53;;;1.88;;
70247;SDS011;57641;51.416;5.506;2023-01-16T17:29:19;2.13;;;1.40;;
70247;SDS011;57641;51.416;5.506;2023-01-16T17:31:45;2.67;;;1.95;;
70247;SDS011;57641;51.416;5.506;2023-01-16T17:34:13;5.07;;;2.42;;
70247;SDS011;57641;51.416;5.506;2023-01-16T17:36:42;4.30;;;3.05;;
70247;SDS011;57641;51.416;5.506;2023-01-16T17:39:09;4.68;;;2.85;;
70247;SDS011;57641;51.416;5.506;2023-01-16T17:41:35;4.47;;;2.35;;
70247;SDS011;57641;51.416;5.506;2023-01-16T17:44:04;5.45;;;3.33;;
70247;SDS011;57641;51.416;5.506;2023-01-16T17:46:58;3.80;;;2.83;;
70247;SDS011;57641;51.416;5.506;2023-01-16T17:49:26;7.45;;;4.28;;
70247;SDS011;57641;51.416;5.506;2023-01-16T17:51:52;6.20;;;4.10;;
70247;SDS011;57641;51.416;5.506;2023-01-16T17:54:17;4.05;;;2.95;;
70247;SDS011;57641;51.416;5.506;2023-01-16T17:57:04;3.58;;;2.35;;
70247;SDS011;57641;51.416;5.506;2023-01-16T17:59:30;5.18;;;2.10;;
70247;SDS011;57641;51.416;5.506;2023-01-16T18:01:56;4.65;;;2.15;;
70247;SDS011;57641;51.416;5.506;2023-01-16T18:04:24;4.22;;;2.13;;
70247;SDS011;57641;51.416;5.506;2023-01-16T18:06:52;3.05;;;2.35;;
70247;SDS011;57641;51.416;5.506;2023-01-16T18:09:20;2.47;;;2.25;;
70247;SDS011;57641;51.416;5.506;2023-01-16T18:11:46;2.50;;;2.17;;
70247;SDS011;57641;51.416;5.506;2023-01-16T18:14:30;2.92;;;2.13;;
70247;SDS011;57641;51.416;5.506;2023-01-16T18:17:15;3.13;;;2.60;;
70247;SDS011;57641;51.416;5.506;2023-01-16T18:19:52;3.25;;;2.65;;
70247;SDS011;57641;51.416;5.506;2023-01-16T18:22:21;3.63;;;2.88;;